sensor_id;sensor_type;location;lat;lon;timestamp;P1;durP1;ratioP1;P2;durP2;ratioP2
28862;SDS011;15994;51.796;13.006;2022-12-08T00:01:10;7.03;;;4.65;;
28862;SDS011;15994;51.796;13.006;2022-12-08T00:03:38;8.20;;;4.20;;
28862;SDS011;15994;51.796;13.006;2022-12-08T00:06:06;8.20;;;4.95;;
28862;SDS011;15994;51.796;13.006;2022-12-08T00:08:54;12.57;;;5.13;;
28862;SDS011;15994;51.796;13.006;2022-12-08T00:11:38;9.07;;;4.47;;
28862;SDS011;15994;51.796;13.006;2022-12-08T00:14:05;8.45;;;5.00;;
28862;SDS011;15994;51.796;13.006;2022-12-08T00:16:31;7.93;;;4.82;;
28862;SDS011;15994;51.796;13.006;2022-12-08T00:18:58;10.30;;;5.05;;
28862;SDS011;15994;51.796;13.006;2022-12-08T00:21:24;9.77;;;5.57;;
28862;SDS011;15994;51.796;13.006;2022-12-08T00:23:53;9.63;;;4.78;;
28862;SDS011;15994;51.796;13.006;2022-12-08T00:26:20;10.00;;;5.53;;
28862;SDS011;15994;51.796;13.006;2022-12-08T00:28:47;8.85;;;5.10;;
28862;SDS011;15994;51.796;13.006;2022-12-08T00:31:14;8.38;;;4.95;;
28862;SDS011;15994;51.796;13.006;2022-12-08T00:33:40;9.57;;;5.18;;
28862;SDS011;15994;51.796;13.006;2022-12-08T00:36:08;11.32;;;6.25;;
28862;SDS011;15994;51.796;13.006;2022-12-08T00:38:39;10.35;;;5.68;;
28862;SDS011;15994;51.796;13.006;2022-12-08T00:41:12;11.82;;;5.70;;
28862;SDS011;15994;51.796;13.006;2022-12-08T00:44:05;13.50;;;6.10;;
28862;SDS011;15994;51.796;13.006;2022-12-08T00:46:33;9.23;;;5.68;;
28862;SDS011;15994;51.796;13.006;2022-12-08T00:48:59;10.82;;;6.13;;
28862;SDS011;15994;51.796;13.006;2022-12-08T00:51:26;11.80;;;5.85;;
28862;SDS011;15994;51.796;13.006;2022-12-08T00:53:52;11.75;;;5.82;;
28862;SDS011;15994;51.796;13.006;2022-12-08T00:56:19;9.90;;;5.65;;
28862;SDS011;15994;51.796;13.006;2022-12-08T00:58:46;11.73;;;5.40;;
28862;SDS011;15994;51.796;13.006;2022-12-08T01:01:12;9.38;;;5.78;;
28862;SDS011;15994;51.796;13.006;2022-12-08T01:03:40;11.48;;;6.25;;
28862;SDS011;15994;51.796;13.006;2022-12-08T01:06:07;9.75;;;6.15;;
28862;SDS011;15994;51.796;13.006;2022-12-08T01:08:41;11.73;;;6.00;;
28862;SDS011;15994;51.796;13.006;2022-12-08T01:11:17;10.98;;;6.10;;
28862;SDS011;15994;51.796;13.006;2022-12-08T01:13:44;10.30;;;6.32;;
28862;SDS011;15994;51.796;13.006;2022-12-08T01:16:21;9.98;;;6.57;;
28862;SDS011;15994;51.796;13.006;2022-12-08T01:18:50;11.65;;;7.00;;
28862;SDS011;15994;51.796;13.006;2022-12-08T01:21:17;12.15;;;7.15;;
28862;SDS011;15994;51.796;13.006;2022-12-08T01:23:44;15.82;;;7.43;;
28862;SDS011;15994;51.796;13.006;2022-12-08T01:26:12;12.07;;;7.60;;
28862;SDS011;15994;51.796;13.006;2022-12-08T01:28:39;12.10;;;8.50;;
28862;SDS011;15994;51.796;13.006;2022-12-08T01:31:14;13.20;;;8.00;;
28862;SDS011;15994;51.796;13.006;2022-12-08T01:33:42;16.67;;;8.18;;
28862;SDS011;15994;51.796;13.006;2022-12-08T01:36:23;13.13;;;8.38;;
28862;SDS011;15994;51.796;13.006;2022-12-08T01:38:55;15.93;;;8.68;;
28862;SDS011;15994;51.796;13.006;2022-12-08T01:41:25;17.25;;;9.07;;
28862;SDS011;15994;51.796;13.006;2022-12-08T01:44:45;13.23;;;8.75;;
28862;SDS011;15994;51.796;13.006;2022-12-08T01:46:49;16.98;;;9.40;;
28862;SDS011;15994;51.796;13.006;2022-12-08T01:49:21;15.93;;;10.05;;
28862;SDS011;15994;51.796;13.006;2022-12-08T01:52:06;19.83;;;10.60;;
28862;SDS011;15994;51.796;13.006;2022-12-08T01:54:43;19.45;;;9.93;;
28862;SDS011;15994;51.796;13.006;2022-12-08T01:57:18;17.02;;;10.15;;
28862;SDS011;15994;51.796;13.006;2022-12-08T01:59:47;16.98;;;9.20;;
28862;SDS011;15994;51.796;13.006;2022-12-08T02:02:18;19.85;;;9.98;;
28862;SDS011;15994;51.796;13.006;2022-12-08T02:04:45;21.33;;;10.32;;
28862;SDS011;15994;51.796;13.006;2022-12-08T02:07:12;16.55;;;9.57;;
28862;SDS011;15994;51.796;13.006;2022-12-08T02:09:40;15.80;;;9.70;;
28862;SDS011;15994;51.796;13.006;2022-12-08T02:12:07;14.35;;;9.65;;
28862;SDS011;15994;51.796;13.006;2022-12-08T02:14:35;18.67;;;10.10;;
28862;SDS011;15994;51.796;13.006;2022-12-08T02:17:04;14.50;;;9.48;;
28862;SDS011;15994;51.796;13.006;2022-12-08T02:22:30;18.00;;;9.68;;
28862;SDS011;15994;51.796;13.006;2022-12-08T02:27:59;17.23;;;9.85;;
28862;SDS011;15994;51.796;13.006;2022-12-08T02:36:28;13.27;;;8.95;;
28862;SDS011;15994;51.796;13.006;2022-12-08T02:41:52;14.48;;;8.88;;
28862;SDS011;15994;51.796;13.006;2022-12-08T02:44:31;12.98;;;8.32;;
28862;SDS011;15994;51.796;13.006;2022-12-08T02:47:05;13.50;;;9.00;;
28862;SDS011;15994;51.796;13.006;2022-12-08T02:49:36;13.48;;;8.38;;
28862;SDS011;15994;51.796;13.006;2022-12-08T02:52:49;15.18;;;8.82;;
28862;SDS011;15994;51.796;13.006;2022-12-08T02:54:54;14.50;;;8.90;;
28862;SDS011;15994;51.796;13.006;2022-12-08T02:57:31;16.40;;;8.90;;
28862;SDS011;15994;51.796;13.006;2022-12-08T03:00:16;13.63;;;9.25;;
28862;SDS011;15994;51.796;13.006;2022-12-08T03:08:14;15.20;;;9.70;;
28862;SDS011;15994;51.796;13.006;2022-12-08T03:10:42;16.63;;;9.50;;
28862;SDS011;15994;51.796;13.006;2022-12-08T03:13:36;14.45;;;9.43;;
28862;SDS011;15994;51.796;13.006;2022-12-08T03:16:09;15.07;;;9.98;;
28862;SDS011;15994;51.796;13.006;2022-12-08T03:18:40;15.32;;;9.68;;
28862;SDS011;15994;51.796;13.006;2022-12-08T03:21:12;14.65;;;9.82;;
28862;SDS011;15994;51.796;13.006;2022-12-08T03:23:41;18.20;;;10.90;;
28862;SDS011;15994;51.796;13.006;2022-12-08T03:26:12;18.90;;;10.52;;
28862;SDS011;15994;51.796;13.006;2022-12-08T03:28:43;17.55;;;10.65;;
28862;SDS011;15994;51.796;13.006;2022-12-08T03:31:11;18.15;;;10.50;;
28862;SDS011;15994;51.796;13.006;2022-12-08T03:33:40;18.50;;;10.98;;
28862;SDS011;15994;51.796;13.006;2022-12-08T03:36:09;18.58;;;11.13;;
28862;SDS011;15994;51.796;13.006;2022-12-08T03:38:38;17.58;;;10.60;;
28862;SDS011;15994;51.796;13.006;2022-12-08T03:41:08;16.30;;;10.07;;
28862;SDS011;15994;51.796;13.006;2022-12-08T03:46:13;18.05;;;10.52;;
28862;SDS011;15994;51.796;13.006;2022-12-08T03:48:44;19.48;;;11.60;;
28862;SDS011;15994;51.796;13.006;2022-12-08T03:51:11;23.02;;;11.27;;
28862;SDS011;15994;51.796;13.006;2022-12-08T03:53:38;20.55;;;11.30;;
28862;SDS011;15994;51.796;13.006;2022-12-08T03:56:10;21.05;;;12.07;;
28862;SDS011;15994;51.796;13.006;2022-12-08T03:58:53;17.48;;;11.35;;
28862;SDS011;15994;51.796;13.006;2022-12-08T04:01:20;19.38;;;12.20;;
28862;SDS011;15994;51.796;13.006;2022-12-08T04:03:48;22.25;;;12.15;;
28862;SDS011;15994;51.796;13.006;2022-12-08T04:06:15;18.25;;;11.15;;
28862;SDS011;15994;51.796;13.006;2022-12-08T04:11:29;19.27;;;11.23;;
28862;SDS011;15994;51.796;13.006;2022-12-08T04:13:56;22.75;;;12.35;;
28862;SDS011;15994;51.796;13.006;2022-12-08T04:16:23;19.75;;;11.57;;
28862;SDS011;15994;51.796;13.006;2022-12-08T04:18:50;21.38;;;11.63;;
28862;SDS011;15994;51.796;13.006;2022-12-08T04:21:17;22.10;;;11.35;;
28862;SDS011;15994;51.796;13.006;2022-12-08T04:23:44;18.27;;;12.15;;
28862;SDS011;15994;51.796;13.006;2022-12-08T04:26:11;17.95;;;11.60;;
28862;SDS011;15994;51.796;13.006;2022-12-08T04:28:38;18.05;;;11.48;;
28862;SDS011;15994;51.796;13.006;2022-12-08T04:31:05;21.60;;;12.05;;
28862;SDS011;15994;51.796;13.006;2022-12-08T04:33:31;18.95;;;11.73;;
28862;SDS011;15994;51.796;13.006;2022-12-08T04:35:59;24.88;;;12.43;;
28862;SDS011;15994;51.796;13.006;2022-12-08T04:38:27;21.75;;;11.15;;
28862;SDS011;15994;51.796;13.006;2022-12-08T04:40:53;18.75;;;11.85;;
28862;SDS011;15994;51.796;13.006;2022-12-08T04:43:20;20.67;;;11.43;;
28862;SDS011;15994;51.796;13.006;2022-12-08T04:45:47;17.08;;;11.02;;
28862;SDS011;15994;51.796;13.006;2022-12-08T04:48:13;17.67;;;11.27;;
28862;SDS011;15994;51.796;13.006;2022-12-08T04:50:40;20.23;;;12.05;;
28862;SDS011;15994;51.796;13.006;2022-12-08T04:53:09;24.00;;;11.45;;
28862;SDS011;15994;51.796;13.006;2022-12-08T04:55:37;20.00;;;11.65;;
28862;SDS011;15994;51.796;13.006;2022-12-08T04:58:05;18.65;;;10.88;;
28862;SDS011;15994;51.796;13.006;2022-12-08T05:00:31;19.05;;;11.05;;
28862;SDS011;15994;51.796;13.006;2022-12-08T05:02:58;17.42;;;11.15;;
28862;SDS011;15994;51.796;13.006;2022-12-08T05:05:25;18.10;;;11.85;;
28862;SDS011;15994;51.796;13.006;2022-12-08T05:07:51;20.15;;;10.55;;
28862;SDS011;15994;51.796;13.006;2022-12-08T05:10:18;21.15;;;11.02;;
28862;SDS011;15994;51.796;13.006;2022-12-08T05:12:44;20.23;;;10.80;;
28862;SDS011;15994;51.796;13.006;2022-12-08T05:15:11;22.17;;;11.30;;
28862;SDS011;15994;51.796;13.006;2022-12-08T05:17:38;21.73;;;11.27;;
28862;SDS011;15994;51.796;13.006;2022-12-08T05:20:05;20.88;;;12.00;;
28862;SDS011;15994;51.796;13.006;2022-12-08T05:22:31;19.52;;;10.55;;
28862;SDS011;15994;51.796;13.006;2022-12-08T05:24:58;20.88;;;11.63;;
28862;SDS011;15994;51.796;13.006;2022-12-08T05:27:26;18.83;;;10.38;;
28862;SDS011;15994;51.796;13.006;2022-12-08T05:29:53;19.80;;;10.75;;
28862;SDS011;15994;51.796;13.006;2022-12-08T05:32:20;19.95;;;10.18;;
28862;SDS011;15994;51.796;13.006;2022-12-08T05:34:53;20.10;;;10.60;;
28862;SDS011;15994;51.796;13.006;2022-12-08T05:37:20;16.98;;;10.35;;
28862;SDS011;15994;51.796;13.006;2022-12-08T05:39:47;17.60;;;11.15;;
28862;SDS011;15994;51.796;13.006;2022-12-08T05:42:13;19.77;;;10.68;;
28862;SDS011;15994;51.796;13.006;2022-12-08T05:44:40;18.38;;;11.10;;
28862;SDS011;15994;51.796;13.006;2022-12-08T05:47:06;21.08;;;11.23;;
28862;SDS011;15994;51.796;13.006;2022-12-08T05:49:33;19.83;;;11.02;;
28862;SDS011;15994;51.796;13.006;2022-12-08T05:51:59;20.65;;;11.70;;
28862;SDS011;15994;51.796;13.006;2022-12-08T05:54:26;18.08;;;11.10;;
28862;SDS011;15994;51.796;13.006;2022-12-08T05:56:53;17.63;;;11.23;;
28862;SDS011;15994;51.796;13.006;2022-12-08T05:59:19;17.70;;;10.93;;
28862;SDS011;15994;51.796;13.006;2022-12-08T06:01:46;20.58;;;10.93;;
28862;SDS011;15994;51.796;13.006;2022-12-08T06:04:12;18.02;;;11.30;;
28862;SDS011;15994;51.796;13.006;2022-12-08T06:06:39;18.65;;;11.00;;
28862;SDS011;15994;51.796;13.006;2022-12-08T06:09:05;22.60;;;12.00;;
28862;SDS011;15994;51.796;13.006;2022-12-08T06:11:33;18.55;;;11.02;;
28862;SDS011;15994;51.796;13.006;2022-12-08T06:14:00;17.95;;;10.82;;
28862;SDS011;15994;51.796;13.006;2022-12-08T06:16:27;15.75;;;10.20;;
28862;SDS011;15994;51.796;13.006;2022-12-08T06:18:54;21.45;;;11.70;;
28862;SDS011;15994;51.796;13.006;2022-12-08T06:21:21;18.15;;;10.73;;
28862;SDS011;15994;51.796;13.006;2022-12-08T06:23:56;20.23;;;10.43;;
28862;SDS011;15994;51.796;13.006;2022-12-08T06:26:22;18.15;;;11.32;;
28862;SDS011;15994;51.796;13.006;2022-12-08T06:28:49;17.70;;;10.50;;
28862;SDS011;15994;51.796;13.006;2022-12-08T06:31:18;19.80;;;10.73;;
28862;SDS011;15994;51.796;13.006;2022-12-08T06:33:45;16.15;;;10.30;;
28862;SDS011;15994;51.796;13.006;2022-12-08T06:36:13;18.73;;;10.82;;
28862;SDS011;15994;51.796;13.006;2022-12-08T06:38:41;17.98;;;10.60;;
28862;SDS011;15994;51.796;13.006;2022-12-08T06:41:08;22.23;;;10.75;;
28862;SDS011;15994;51.796;13.006;2022-12-08T06:43:35;15.18;;;10.00;;
28862;SDS011;15994;51.796;13.006;2022-12-08T06:46:04;17.33;;;10.05;;
28862;SDS011;15994;51.796;13.006;2022-12-08T06:48:31;19.73;;;10.52;;
28862;SDS011;15994;51.796;13.006;2022-12-08T06:51:05;17.17;;;10.10;;
28862;SDS011;15994;51.796;13.006;2022-12-08T06:53:32;16.55;;;10.25;;
28862;SDS011;15994;51.796;13.006;2022-12-08T06:55:59;18.90;;;10.77;;
28862;SDS011;15994;51.796;13.006;2022-12-08T06:58:26;20.15;;;11.05;;
28862;SDS011;15994;51.796;13.006;2022-12-08T07:00:52;22.65;;;11.50;;
28862;SDS011;15994;51.796;13.006;2022-12-08T07:03:19;19.10;;;10.68;;
28862;SDS011;15994;51.796;13.006;2022-12-08T07:05:46;18.42;;;10.63;;
28862;SDS011;15994;51.796;13.006;2022-12-08T07:08:12;18.67;;;11.20;;
28862;SDS011;15994;51.796;13.006;2022-12-08T07:10:39;18.85;;;11.68;;
28862;SDS011;15994;51.796;13.006;2022-12-08T07:13:06;17.23;;;11.50;;
28862;SDS011;15994;51.796;13.006;2022-12-08T07:15:32;20.27;;;12.07;;
28862;SDS011;15994;51.796;13.006;2022-12-08T07:17:59;20.27;;;12.18;;
28862;SDS011;15994;51.796;13.006;2022-12-08T07:20:25;18.85;;;11.48;;
28862;SDS011;15994;51.796;13.006;2022-12-08T07:22:52;20.70;;;12.15;;
28862;SDS011;15994;51.796;13.006;2022-12-08T07:25:19;21.15;;;12.30;;
28862;SDS011;15994;51.796;13.006;2022-12-08T07:27:46;18.77;;;11.88;;
28862;SDS011;15994;51.796;13.006;2022-12-08T07:30:15;19.20;;;11.85;;
28862;SDS011;15994;51.796;13.006;2022-12-08T07:32:42;21.48;;;12.68;;
28862;SDS011;15994;51.796;13.006;2022-12-08T07:35:09;21.27;;;12.13;;
28862;SDS011;15994;51.796;13.006;2022-12-08T07:37:36;18.50;;;12.50;;
28862;SDS011;15994;51.796;13.006;2022-12-08T07:40:04;20.05;;;12.55;;
28862;SDS011;15994;51.796;13.006;2022-12-08T07:42:32;20.30;;;11.40;;
28862;SDS011;15994;51.796;13.006;2022-12-08T07:44:58;17.73;;;11.82;;
28862;SDS011;15994;51.796;13.006;2022-12-08T07:47:26;18.40;;;11.88;;
28862;SDS011;15994;51.796;13.006;2022-12-08T07:49:52;16.85;;;11.27;;
28862;SDS011;15994;51.796;13.006;2022-12-08T07:52:19;18.08;;;11.75;;
28862;SDS011;15994;51.796;13.006;2022-12-08T07:54:46;21.83;;;11.48;;
28862;SDS011;15994;51.796;13.006;2022-12-08T07:57:12;20.13;;;11.32;;
28862;SDS011;15994;51.796;13.006;2022-12-08T07:59:39;17.05;;;11.20;;
28862;SDS011;15994;51.796;13.006;2022-12-08T08:02:10;20.20;;;12.30;;
28862;SDS011;15994;51.796;13.006;2022-12-08T08:04:41;17.85;;;11.75;;
28862;SDS011;15994;51.796;13.006;2022-12-08T08:07:07;19.13;;;12.57;;
28862;SDS011;15994;51.796;13.006;2022-12-08T08:09:34;22.25;;;11.60;;
28862;SDS011;15994;51.796;13.006;2022-12-08T08:12:00;18.52;;;11.73;;
28862;SDS011;15994;51.796;13.006;2022-12-08T08:14:27;20.38;;;12.43;;
28862;SDS011;15994;51.796;13.006;2022-12-08T08:16:53;16.92;;;10.77;;
28862;SDS011;15994;51.796;13.006;2022-12-08T08:19:20;19.65;;;12.63;;
28862;SDS011;15994;51.796;13.006;2022-12-08T08:21:47;19.30;;;11.73;;
28862;SDS011;15994;51.796;13.006;2022-12-08T08:24:13;22.35;;;12.15;;
28862;SDS011;15994;51.796;13.006;2022-12-08T08:26:40;20.17;;;12.68;;
28862;SDS011;15994;51.796;13.006;2022-12-08T08:29:06;18.10;;;11.25;;
28862;SDS011;15994;51.796;13.006;2022-12-08T08:31:33;18.25;;;11.85;;
28862;SDS011;15994;51.796;13.006;2022-12-08T08:34:00;18.92;;;11.68;;
28862;SDS011;15994;51.796;13.006;2022-12-08T08:36:30;14.05;;;10.05;;
28862;SDS011;15994;51.796;13.006;2022-12-08T08:38:57;18.92;;;10.98;;
28862;SDS011;15994;51.796;13.006;2022-12-08T08:41:23;19.92;;;11.38;;
28862;SDS011;15994;51.796;13.006;2022-12-08T08:43:50;17.35;;;11.13;;
28862;SDS011;15994;51.796;13.006;2022-12-08T08:46:16;18.80;;;11.70;;
28862;SDS011;15994;51.796;13.006;2022-12-08T08:48:43;17.73;;;11.20;;
28862;SDS011;15994;51.796;13.006;2022-12-08T08:51:11;19.17;;;11.13;;
28862;SDS011;15994;51.796;13.006;2022-12-08T08:53:39;17.38;;;10.93;;
28862;SDS011;15994;51.796;13.006;2022-12-08T08:56:09;15.70;;;10.55;;
28862;SDS011;15994;51.796;13.006;2022-12-08T08:58:38;14.68;;;10.70;;
28862;SDS011;15994;51.796;13.006;2022-12-08T09:01:05;16.25;;;10.85;;
28862;SDS011;15994;51.796;13.006;2022-12-08T09:03:32;16.67;;;10.73;;
28862;SDS011;15994;51.796;13.006;2022-12-08T09:05:58;15.15;;;10.10;;
28862;SDS011;15994;51.796;13.006;2022-12-08T09:08:25;18.80;;;11.32;;
28862;SDS011;15994;51.796;13.006;2022-12-08T09:10:52;17.45;;;11.05;;
28862;SDS011;15994;51.796;13.006;2022-12-08T09:13:18;22.70;;;11.93;;
28862;SDS011;15994;51.796;13.006;2022-12-08T09:15:46;17.10;;;11.45;;
28862;SDS011;15994;51.796;13.006;2022-12-08T09:18:12;16.73;;;11.10;;
28862;SDS011;15994;51.796;13.006;2022-12-08T09:20:39;16.85;;;11.10;;
28862;SDS011;15994;51.796;13.006;2022-12-08T09:23:06;17.38;;;10.52;;
28862;SDS011;15994;51.796;13.006;2022-12-08T09:25:33;14.18;;;9.80;;
28862;SDS011;15994;51.796;13.006;2022-12-08T09:28:00;15.63;;;10.10;;
28862;SDS011;15994;51.796;13.006;2022-12-08T09:30:26;13.85;;;10.38;;
28862;SDS011;15994;51.796;13.006;2022-12-08T09:32:53;18.88;;;11.27;;
28862;SDS011;15994;51.796;13.006;2022-12-08T09:35:20;15.77;;;10.60;;
28862;SDS011;15994;51.796;13.006;2022-12-08T09:37:46;14.88;;;9.85;;
28862;SDS011;15994;51.796;13.006;2022-12-08T09:40:14;13.18;;;10.00;;
28862;SDS011;15994;51.796;13.006;2022-12-08T09:42:48;14.80;;;9.80;;
28862;SDS011;15994;51.796;13.006;2022-12-08T09:45:17;15.43;;;10.18;;
28862;SDS011;15994;51.796;13.006;2022-12-08T09:50:38;15.73;;;10.35;;
28862;SDS011;15994;51.796;13.006;2022-12-08T09:53:18;15.48;;;10.27;;
28862;SDS011;15994;51.796;13.006;2022-12-08T09:58:20;14.98;;;9.73;;
28862;SDS011;15994;51.796;13.006;2022-12-08T10:00:57;14.82;;;10.00;;
28862;SDS011;15994;51.796;13.006;2022-12-08T10:03:25;14.25;;;10.48;;
28862;SDS011;15994;51.796;13.006;2022-12-08T10:05:56;14.75;;;10.25;;
28862;SDS011;15994;51.796;13.006;2022-12-08T10:11:43;14.07;;;9.50;;
28862;SDS011;15994;51.796;13.006;2022-12-08T10:17:16;14.77;;;9.43;;
28862;SDS011;15994;51.796;13.006;2022-12-08T10:19:50;13.77;;;9.45;;
28862;SDS011;15994;51.796;13.006;2022-12-08T10:22:25;15.95;;;9.75;;
28862;SDS011;15994;51.796;13.006;2022-12-08T10:25:03;14.30;;;9.15;;
28862;SDS011;15994;51.796;13.006;2022-12-08T10:27:36;14.55;;;9.60;;
28862;SDS011;15994;51.796;13.006;2022-12-08T10:30:14;12.70;;;9.20;;
28862;SDS011;15994;51.796;13.006;2022-12-08T10:32:44;13.00;;;8.93;;
28862;SDS011;15994;51.796;13.006;2022-12-08T10:35:13;15.68;;;9.32;;
28862;SDS011;15994;51.796;13.006;2022-12-08T10:37:53;13.70;;;8.82;;
28862;SDS011;15994;51.796;13.006;2022-12-08T10:40:22;14.27;;;9.55;;
28862;SDS011;15994;51.796;13.006;2022-12-08T10:42:52;13.52;;;8.95;;
28862;SDS011;15994;51.796;13.006;2022-12-08T10:45:29;12.48;;;8.80;;
28862;SDS011;15994;51.796;13.006;2022-12-08T10:47:59;14.93;;;9.38;;
28862;SDS011;15994;51.796;13.006;2022-12-08T10:50:30;12.70;;;9.38;;
28862;SDS011;15994;51.796;13.006;2022-12-08T10:52:58;13.52;;;8.88;;
28862;SDS011;15994;51.796;13.006;2022-12-08T10:55:27;16.15;;;9.75;;
28862;SDS011;15994;51.796;13.006;2022-12-08T10:58:03;13.15;;;9.45;;
28862;SDS011;15994;51.796;13.006;2022-12-08T11:00:30;15.02;;;9.85;;
28862;SDS011;15994;51.796;13.006;2022-12-08T11:03:03;13.15;;;9.32;;
28862;SDS011;15994;51.796;13.006;2022-12-08T11:05:33;13.30;;;8.88;;
28862;SDS011;15994;51.796;13.006;2022-12-08T11:08:01;13.73;;;9.13;;
28862;SDS011;15994;51.796;13.006;2022-12-08T11:10:33;11.68;;;9.27;;
28862;SDS011;15994;51.796;13.006;2022-12-08T11:13:04;12.95;;;9.20;;
28862;SDS011;15994;51.796;13.006;2022-12-08T11:15:38;15.93;;;9.73;;
28862;SDS011;15994;51.796;13.006;2022-12-08T11:18:06;12.18;;;8.93;;
28862;SDS011;15994;51.796;13.006;2022-12-08T11:20:39;12.75;;;8.45;;
28862;SDS011;15994;51.796;13.006;2022-12-08T11:23:17;12.68;;;8.70;;
28862;SDS011;15994;51.796;13.006;2022-12-08T11:25:45;11.70;;;8.30;;
28862;SDS011;15994;51.796;13.006;2022-12-08T11:28:13;9.60;;;6.95;;
28862;SDS011;15994;51.796;13.006;2022-12-08T11:30:42;11.80;;;7.13;;
28862;SDS011;15994;51.796;13.006;2022-12-08T11:35:49;11.40;;;7.68;;
28862;SDS011;15994;51.796;13.006;2022-12-08T11:38:20;12.75;;;8.90;;
28862;SDS011;15994;51.796;13.006;2022-12-08T11:40:52;14.90;;;10.13;;
28862;SDS011;15994;51.796;13.006;2022-12-08T11:43:41;18.02;;;11.30;;
28862;SDS011;15994;51.796;13.006;2022-12-08T11:46:18;15.93;;;10.85;;
28862;SDS011;15994;51.796;13.006;2022-12-08T11:49:00;17.08;;;10.45;;
28862;SDS011;15994;51.796;13.006;2022-12-08T11:57:01;14.50;;;10.13;;
28862;SDS011;15994;51.796;13.006;2022-12-08T11:59:42;15.63;;;10.45;;
28862;SDS011;15994;51.796;13.006;2022-12-08T12:02:12;15.57;;;9.25;;
28862;SDS011;15994;51.796;13.006;2022-12-08T12:07:29;16.60;;;9.52;;
28862;SDS011;15994;51.796;13.006;2022-12-08T12:16:13;13.23;;;9.45;;
28862;SDS011;15994;51.796;13.006;2022-12-08T12:18:59;15.90;;;10.35;;
28862;SDS011;15994;51.796;13.006;2022-12-08T12:21:32;13.73;;;9.57;;
28862;SDS011;15994;51.796;13.006;2022-12-08T12:27:41;13.93;;;10.18;;
28862;SDS011;15994;51.796;13.006;2022-12-08T12:29:43;15.68;;;11.07;;
28862;SDS011;15994;51.796;13.006;2022-12-08T12:32:13;12.40;;;9.80;;
28862;SDS011;15994;51.796;13.006;2022-12-08T12:34:47;13.63;;;10.50;;
28862;SDS011;15994;51.796;13.006;2022-12-08T12:37:21;14.07;;;9.85;;
28862;SDS011;15994;51.796;13.006;2022-12-08T12:40:02;13.98;;;10.45;;
28862;SDS011;15994;51.796;13.006;2022-12-08T12:43:10;15.32;;;10.25;;
28862;SDS011;15994;51.796;13.006;2022-12-08T12:45:35;13.93;;;10.13;;
28862;SDS011;15994;51.796;13.006;2022-12-08T13:04:01;15.88;;;11.15;;
28862;SDS011;15994;51.796;13.006;2022-12-08T13:06:36;16.15;;;10.05;;
28862;SDS011;15994;51.796;13.006;2022-12-08T13:09:54;14.90;;;9.60;;
28862;SDS011;15994;51.796;13.006;2022-12-08T13:11:58;14.43;;;10.02;;
28862;SDS011;15994;51.796;13.006;2022-12-08T13:14:34;13.38;;;10.18;;
28862;SDS011;15994;51.796;13.006;2022-12-08T13:17:06;13.07;;;10.07;;
28862;SDS011;15994;51.796;13.006;2022-12-08T13:19:37;14.35;;;9.55;;
28862;SDS011;15994;51.796;13.006;2022-12-08T13:28:16;14.18;;;9.93;;
28862;SDS011;15994;51.796;13.006;2022-12-08T13:30:44;13.40;;;8.98;;
28862;SDS011;15994;51.796;13.006;2022-12-08T13:33:26;15.70;;;9.13;;
28862;SDS011;15994;51.796;13.006;2022-12-08T13:35:59;14.93;;;9.48;;
28862;SDS011;15994;51.796;13.006;2022-12-08T13:38:35;12.38;;;8.82;;
28862;SDS011;15994;51.796;13.006;2022-12-08T13:41:05;12.20;;;9.23;;
28862;SDS011;15994;51.796;13.006;2022-12-08T13:43:45;13.23;;;9.10;;
28862;SDS011;15994;51.796;13.006;2022-12-08T13:46:20;14.02;;;10.05;;
28862;SDS011;15994;51.796;13.006;2022-12-08T13:48:58;13.13;;;8.75;;
28862;SDS011;15994;51.796;13.006;2022-12-08T13:51:29;12.43;;;9.30;;
28862;SDS011;15994;51.796;13.006;2022-12-08T13:56:46;11.50;;;8.18;;
28862;SDS011;15994;51.796;13.006;2022-12-08T14:01:44;13.48;;;8.95;;
28862;SDS011;15994;51.796;13.006;2022-12-08T14:04:17;11.48;;;8.10;;
28862;SDS011;15994;51.796;13.006;2022-12-08T14:06:49;11.68;;;7.95;;
28862;SDS011;15994;51.796;13.006;2022-12-08T14:09:22;10.68;;;7.93;;
28862;SDS011;15994;51.796;13.006;2022-12-08T14:12:26;10.32;;;7.25;;
28862;SDS011;15994;51.796;13.006;2022-12-08T14:14:50;10.60;;;7.65;;
28862;SDS011;15994;51.796;13.006;2022-12-08T14:17:29;12.13;;;7.40;;
28862;SDS011;15994;51.796;13.006;2022-12-08T14:19:58;10.32;;;7.57;;
28862;SDS011;15994;51.796;13.006;2022-12-08T14:22:34;12.02;;;7.30;;
28862;SDS011;15994;51.796;13.006;2022-12-08T14:25:02;10.15;;;7.22;;
28862;SDS011;15994;51.796;13.006;2022-12-08T14:27:33;11.55;;;7.57;;
28862;SDS011;15994;51.796;13.006;2022-12-08T14:35:21;10.77;;;7.28;;
28862;SDS011;15994;51.796;13.006;2022-12-08T14:37:53;10.75;;;7.82;;
28862;SDS011;15994;51.796;13.006;2022-12-08T14:48:25;7.45;;;5.05;;
28862;SDS011;15994;51.796;13.006;2022-12-08T14:53:56;3.92;;;3.00;;
28862;SDS011;15994;51.796;13.006;2022-12-08T14:56:53;4.82;;;3.13;;
28862;SDS011;15994;51.796;13.006;2022-12-08T14:59:25;4.95;;;3.60;;
28862;SDS011;15994;51.796;13.006;2022-12-08T15:04:44;3.67;;;2.72;;
28862;SDS011;15994;51.796;13.006;2022-12-08T15:07:13;3.25;;;2.42;;
28862;SDS011;15994;51.796;13.006;2022-12-08T15:09:44;4.95;;;2.38;;
28862;SDS011;15994;51.796;13.006;2022-12-08T15:14:41;4.72;;;3.08;;
28862;SDS011;15994;51.796;13.006;2022-12-08T15:19:57;5.20;;;3.60;;
28862;SDS011;15994;51.796;13.006;2022-12-08T15:22:25;5.50;;;3.88;;
28862;SDS011;15994;51.796;13.006;2022-12-08T15:24:54;8.02;;;5.30;;
28862;SDS011;15994;51.796;13.006;2022-12-08T15:27:22;10.38;;;6.65;;
28862;SDS011;15994;51.796;13.006;2022-12-08T15:29:50;10.70;;;5.40;;
28862;SDS011;15994;51.796;13.006;2022-12-08T15:32:18;9.23;;;5.55;;
28862;SDS011;15994;51.796;13.006;2022-12-08T15:34:46;12.00;;;6.55;;
28862;SDS011;15994;51.796;13.006;2022-12-08T15:37:31;9.15;;;6.00;;
28862;SDS011;15994;51.796;13.006;2022-12-08T15:39:57;10.43;;;6.05;;
28862;SDS011;15994;51.796;13.006;2022-12-08T15:42:24;10.25;;;6.80;;
28862;SDS011;15994;51.796;13.006;2022-12-08T15:44:50;15.65;;;9.70;;
28862;SDS011;15994;51.796;13.006;2022-12-08T15:47:21;11.85;;;7.72;;
28862;SDS011;15994;51.796;13.006;2022-12-08T15:49:49;13.95;;;8.50;;
28862;SDS011;15994;51.796;13.006;2022-12-08T15:52:18;15.00;;;9.65;;
28862;SDS011;15994;51.796;13.006;2022-12-08T15:54:46;15.35;;;11.32;;
28862;SDS011;15994;51.796;13.006;2022-12-08T15:57:16;22.00;;;15.85;;
28862;SDS011;15994;51.796;13.006;2022-12-08T15:59:50;23.30;;;15.60;;
28862;SDS011;15994;51.796;13.006;2022-12-08T16:02:19;21.88;;;14.38;;
28862;SDS011;15994;51.796;13.006;2022-12-08T16:04:46;16.88;;;12.00;;
28862;SDS011;15994;51.796;13.006;2022-12-08T16:07:26;19.27;;;12.38;;
28862;SDS011;15994;51.796;13.006;2022-12-08T16:09:54;18.98;;;12.35;;
28862;SDS011;15994;51.796;13.006;2022-12-08T16:12:22;59.65;;;33.08;;
28862;SDS011;15994;51.796;13.006;2022-12-08T16:15:09;24.77;;;16.35;;
28862;SDS011;15994;51.796;13.006;2022-12-08T16:17:37;22.42;;;16.83;;
28862;SDS011;15994;51.796;13.006;2022-12-08T16:20:10;18.17;;;13.50;;
28862;SDS011;15994;51.796;13.006;2022-12-08T16:22:40;19.48;;;13.75;;